This is the latest recevied weather packets stored in our database for station/object HB9CYX-13. If no packets are shown the sender has not sent any weather packets the latest 10 day(s).
| Time | Temp. | Humidity | Pressure | Rain* | Wind** | Luminosity | Snow |
|---|---|---|---|---|---|---|---|
| 1777394413 | 18.33° C | 51% | 1016 hPa | 0 mm | - | - | - |
| 1777393665 | 18.89° C | 45% | 1015.9 hPa | 0 mm | - | - | - |
| 1777392917 | 19.44° C | 42% | 1015.7 hPa | 0 mm | - | - | - |
| 1777392169 | 19.44° C | 42% | 1015.5 hPa | 0 mm | - | - | - |
| 1777391422 | 19.44° C | 39% | 1015.4 hPa | 0 mm | - | - | - |
| 1777390676 | 19.44° C | 39% | 1015.3 hPa | 0 mm | - | - | - |
| 1777389928 | 20° C | 38% | 1015.3 hPa | 0 mm | - | - | - |
| 1777389181 | 20° C | 38% | 1015.3 hPa | 0 mm | - | - | - |
| 1777388434 | 20.56° C | 37% | 1015.3 hPa | 0 mm | - | - | - |
| 1777387687 | 20.56° C | 37% | 1015.3 hPa | 0 mm | - | - | - |
| 1777386940 | 20.56° C | 39% | 1015.3 hPa | 0 mm | - | - | - |
| 1777386193 | 20.56° C | 37% | 1015.3 hPa | 0 mm | - | - | - |
| 1777385447 | 20.56° C | 37% | 1015.3 hPa | 0 mm | - | - | - |
| 1777384701 | 20.56° C | 37% | 1015.1 hPa | 0 mm | - | - | - |
| 1777383954 | 20.56° C | 37% | 1015.2 hPa | 0 mm | - | - | - |
| 1777383207 | 21.11° C | 36% | 1015.1 hPa | 0 mm | - | - | - |
| 1777382461 | 21.11° C | 36% | 1015.2 hPa | 0 mm | - | - | - |
| 1777381714 | 20.56° C | 35% | 1015.2 hPa | 0 mm | - | - | - |
| 1777380964 | 21.11° C | 36% | 1015.2 hPa | 0 mm | - | - | - |
| 1777380217 | 21.11° C | 34% | 1015.2 hPa | 0 mm | - | - | - |
| 1777379470 | 21.11° C | 35% | 1015.3 hPa | 0 mm | - | - | - |
| 1777378722 | 21.11° C | 35% | 1015.3 hPa | 0 mm | - | - | - |
| 1777377974 | 21.67° C | 35% | 1015.1 hPa | 0 mm | - | - | - |
| 1777377226 | 22.22° C | 34% | 1015 hPa | 0 mm | - | - | - |
| 1777376478 | 21.11° C | 36% | 1015.3 hPa | 0 mm | - | - | - |
* Rain latest hour (hover to see other rain measurements)
** Current wind speed in m/s (hover to see current wind gust speed)